createdAt,value
2018-06-15T00:00:59.479Z,100273.47
2018-06-15T00:03:27.647Z,100276.84
2018-06-15T00:05:55.856Z,100270.66
2018-06-15T00:08:25.059Z,100271.59
2018-06-15T00:10:53.331Z,100269.06
2018-06-15T00:13:21.397Z,100269.62
2018-06-15T00:15:49.803Z,100276.88
2018-06-15T00:18:18.050Z,100273.84
2018-06-15T00:20:46.190Z,100267.85
2018-06-15T00:23:14.347Z,100268.13
2018-06-15T00:25:42.426Z,100267.97
2018-06-15T00:28:10.521Z,100269.71
2018-06-15T00:30:38.738Z,100268.16
2018-06-15T00:33:06.933Z,100265.07
2018-06-15T00:35:35.345Z,100256.66
2018-06-15T00:38:03.543Z,100254.94
2018-06-15T00:40:31.841Z,100247.48
2018-06-15T00:43:00.097Z,100255.20
2018-06-15T00:45:28.271Z,100250.64
2018-06-15T00:47:58.414Z,100249.38
2018-06-15T00:50:26.717Z,100242.84
2018-06-15T00:52:54.774Z,100241.13
2018-06-15T00:55:23.909Z,100241.47
2018-06-15T00:57:51.980Z,100241.56
2018-06-15T01:00:20.060Z,100238.69
2018-06-15T01:02:48.343Z,100241.34
2018-06-15T01:05:16.549Z,100242.53
2018-06-15T01:07:44.656Z,100243.94
2018-06-15T01:10:12.803Z,100242.33
2018-06-15T01:12:40.836Z,100246.83
2018-06-15T01:15:10.031Z,100242.53
2018-06-15T01:17:38.552Z,100240.97
2018-06-15T01:20:06.652Z,100244.59
2018-06-15T01:22:34.725Z,100238.67
2018-06-15T01:25:03.110Z,100244.26
2018-06-15T01:27:31.232Z,100233.05
2018-06-15T01:29:59.296Z,100230.73
2018-06-15T01:32:27.391Z,100227.84
2018-06-15T01:34:55.452Z,100229.56
2018-06-15T01:37:23.579Z,100228.14
2018-06-15T01:39:51.912Z,100234.45
2018-06-15T01:42:20.060Z,100238.56
2018-06-15T01:44:48.265Z,100234.52
2018-06-15T01:47:16.332Z,100233.96
2018-06-15T01:49:44.447Z,100234.70
2018-06-15T01:52:13.523Z,100236.90
2018-06-15T01:54:41.645Z,100232.15
2018-06-15T01:57:09.885Z,100234.09
2018-06-15T01:59:38.004Z,100233.72
2018-06-15T02:02:06.154Z,100236.03
2018-06-15T02:04:34.348Z,100234.68
2018-06-15T02:07:02.470Z,100239.17
2018-06-15T02:09:30.564Z,100236.19
2018-06-15T02:11:58.838Z,100231.81
2018-06-15T02:14:30.921Z,100228.83
2018-06-15T02:17:10.943Z,100234.50
2018-06-15T02:19:39.719Z,100225.86
2018-06-15T02:22:07.923Z,100222.48
2018-06-15T02:24:36.152Z,100220.63
2018-06-15T02:27:04.416Z,100212.63
2018-06-15T02:29:32.655Z,100209.56
2018-06-15T02:32:00.727Z,100213.08
2018-06-15T02:34:29.143Z,100213.86
2018-06-15T02:36:57.268Z,100214.56
2018-06-15T02:39:25.369Z,100214.06
2018-06-15T02:41:53.599Z,100216.80
2018-06-15T02:44:22.249Z,100216.23
2018-06-15T02:46:51.414Z,100217.55
2018-06-15T02:49:19.668Z,100222.40
2018-06-15T02:51:47.823Z,100224.02
2018-06-15T02:54:16.255Z,100222.27
2018-06-15T02:56:44.564Z,100225.11
2018-06-15T02:59:13.638Z,100231.29
2018-06-15T03:01:41.750Z,100233.90
2018-06-15T03:04:09.955Z,100234.30
2018-06-15T03:06:38.095Z,100231.94
2018-06-15T03:09:06.494Z,100232.66
2018-06-15T03:11:34.676Z,100229.41
2018-06-15T03:14:02.742Z,100231.53
2018-06-15T03:16:31.008Z,100226.05
2018-06-15T03:18:59.225Z,100230.42
2018-06-15T03:21:27.356Z,100231.66
2018-06-15T03:23:55.810Z,100228.30
2018-06-15T03:26:24.033Z,100232.22
2018-06-15T03:28:52.930Z,100238.06
2018-06-15T03:31:21.652Z,100235.16
2018-06-15T03:33:50.266Z,100234.67
2018-06-15T03:36:18.568Z,100226.10
2018-06-15T03:38:46.686Z,100227.53
2018-06-15T03:41:14.910Z,100230.39
2018-06-15T03:43:43.052Z,100231.78
2018-06-15T03:46:11.172Z,100234.55
2018-06-15T03:48:39.378Z,100233.91
2018-06-15T03:51:07.463Z,100228.42
2018-06-15T03:53:35.671Z,100232.72
2018-06-15T03:56:03.792Z,100233.25
2018-06-15T03:58:32.086Z,100232.37
2018-06-15T04:01:00.204Z,100235.45
2018-06-15T04:03:28.296Z,100234.27
2018-06-15T04:05:56.829Z,100232.32
2018-06-15T04:08:25.135Z,100237.76
2018-06-15T04:10:53.271Z,100237.20
2018-06-15T04:13:21.389Z,100238.46
2018-06-15T04:15:49.646Z,100239.16
2018-06-15T04:18:17.764Z,100245.14
2018-06-15T04:20:46.137Z,100244.32
2018-06-15T04:23:14.317Z,100250.31
2018-06-15T04:25:42.400Z,100250.42
2018-06-15T04:28:10.637Z,100248.13
2018-06-15T04:30:38.944Z,100249.73
2018-06-15T04:33:07.086Z,100255.64
2018-06-15T04:35:35.310Z,100250.86
2018-06-15T04:38:03.498Z,100248.38
2018-06-15T04:40:31.638Z,100254.47
2018-06-15T04:42:59.796Z,100253.01
2018-06-15T04:45:28.775Z,100255.53
2018-06-15T04:47:56.919Z,100258.11
2018-06-15T04:50:25.036Z,100254.49
2018-06-15T04:52:53.428Z,100250.52
2018-06-15T04:55:21.568Z,100251.26
2018-06-15T04:57:49.657Z,100260.52
2018-06-15T05:00:17.781Z,100258.50
2018-06-15T05:02:46.006Z,100259.08
2018-06-15T05:05:14.104Z,100257.06
2018-06-15T05:07:42.415Z,100253.05
2018-06-15T05:10:10.528Z,100252.87
2018-06-15T05:12:38.703Z,100254.47
2018-06-15T05:15:06.831Z,100256.12
2018-06-15T05:17:35.094Z,100261.22
2018-06-15T05:20:03.267Z,100264.47
2018-06-15T05:22:31.585Z,100268.77
2018-06-15T05:25:00.109Z,100268.42
2018-06-15T05:27:28.293Z,100273.91
2018-06-15T05:29:56.459Z,100272.69
2018-06-15T05:32:24.562Z,100276.56
2018-06-15T05:34:52.954Z,100273.06
2018-06-15T05:37:21.179Z,100274.87
2018-06-15T05:39:49.462Z,100277.72
2018-06-15T05:42:17.618Z,100279.22
2018-06-15T05:44:45.810Z,100280.06
2018-06-15T05:47:13.943Z,100272.56
2018-06-15T05:49:42.036Z,100278.69
2018-06-15T05:52:10.211Z,100275.14
2018-06-15T05:54:38.436Z,100276.23
2018-06-15T05:57:06.995Z,100274.92
2018-06-15T05:59:35.939Z,100275.91
2018-06-15T06:02:04.208Z,100273.73
2018-06-15T06:04:33.062Z,100279.03
2018-06-15T06:07:01.391Z,100276.31
2018-06-15T06:09:29.692Z,100288.05
2018-06-15T06:11:57.784Z,100288.58
2018-06-15T06:14:26.044Z,100288.22
2018-06-15T06:16:54.319Z,100293.70
2018-06-15T06:19:23.284Z,100293.59
2018-06-15T06:21:51.381Z,100296.72
2018-06-15T06:24:19.778Z,100296.37
2018-06-15T06:26:48.008Z,100298.13
2018-06-15T06:29:16.324Z,100301.55
2018-06-15T06:31:44.659Z,100300.61
2018-06-15T06:34:12.750Z,100306.38
2018-06-15T06:36:40.939Z,100305.63
2018-06-15T06:39:11.368Z,100305.16
2018-06-15T06:41:39.734Z,100307.31
2018-06-15T06:44:08.016Z,100318.50
2018-06-15T06:46:36.387Z,100313.00
2018-06-15T06:49:04.671Z,100315.56
2018-06-15T06:51:32.849Z,100316.33
2018-06-15T06:54:01.091Z,100323.70
2018-06-15T06:56:29.232Z,100323.97
2018-06-15T06:58:57.495Z,100322.41
2018-06-15T07:01:25.636Z,100327.50
2018-06-15T07:03:53.771Z,100331.46
2018-06-15T07:06:21.970Z,100325.70
2018-06-15T07:08:50.091Z,100325.14
2018-06-15T07:11:18.669Z,100332.77
2018-06-15T07:13:46.780Z,100327.03
2018-06-15T07:16:15.030Z,100324.59
2018-06-15T07:18:43.209Z,100328.48
2018-06-15T07:21:11.401Z,100324.61
2018-06-15T07:23:39.590Z,100331.00
2018-06-15T07:26:07.667Z,100332.44
2018-06-15T07:28:36.417Z,100332.91
2018-06-15T07:31:04.555Z,100320.10
2018-06-15T07:33:32.788Z,100329.37
2018-06-15T07:36:00.860Z,100332.74
2018-06-15T07:38:29.194Z,100337.98
2018-06-15T07:40:57.317Z,100331.95
2018-06-15T07:43:25.459Z,100325.82
2018-06-15T07:45:53.631Z,100324.56
2018-06-15T07:48:22.024Z,100325.02
2018-06-15T07:50:50.131Z,100321.38
2018-06-15T07:53:18.202Z,100318.66
2018-06-15T07:55:46.511Z,100319.50
2018-06-15T07:58:14.636Z,100317.48
2018-06-15T08:00:42.820Z,100322.86
2018-06-15T08:03:11.323Z,100317.86
2018-06-15T08:05:39.423Z,100312.33
2018-06-15T08:08:07.534Z,100318.36
2018-06-15T08:10:36.876Z,100313.63
2018-06-15T08:13:05.070Z,100318.41
2018-06-15T08:15:34.371Z,100317.44
2018-06-15T08:18:04.976Z,100315.81
2018-06-15T08:20:33.056Z,100315.72
2018-06-15T08:23:01.107Z,100318.80
2018-06-15T08:25:29.214Z,100310.18
2018-06-15T08:27:57.271Z,100314.08
2018-06-15T08:30:25.333Z,100312.34
2018-06-15T08:32:54.453Z,100312.78
2018-06-15T08:35:29.821Z,100314.52
2018-06-15T08:38:00.018Z,100315.37
2018-06-15T08:40:42.574Z,100311.91
2018-06-15T08:43:11.452Z,100319.58
2018-06-15T08:45:39.753Z,100318.31
2018-06-15T08:48:07.891Z,100312.61
2018-06-15T08:50:36.063Z,100307.08
2018-06-15T08:53:04.207Z,100313.12
2018-06-15T08:55:32.616Z,100309.74
2018-06-15T08:58:00.758Z,100303.30
2018-06-15T09:00:29.009Z,100306.28
2018-06-15T09:02:57.263Z,100304.55
2018-06-15T09:05:26.052Z,100303.25
2018-06-15T09:07:54.355Z,100293.74
2018-06-15T09:10:22.919Z,100294.62
2018-06-15T09:12:50.999Z,100285.40
2018-06-15T09:15:19.155Z,100287.17
2018-06-15T09:17:47.254Z,100284.45
2018-06-15T09:20:15.557Z,100284.87
2018-06-15T09:22:43.659Z,100280.61
2018-06-15T09:25:11.772Z,100296.80
2018-06-15T09:27:40.028Z,100293.75
2018-06-15T09:30:08.250Z,100287.72
2018-06-15T09:32:36.777Z,100291.98
2018-06-15T09:35:05.157Z,100283.31
2018-06-15T09:37:33.234Z,100286.70
2018-06-15T09:40:01.316Z,100284.43
2018-06-15T09:42:29.579Z,100280.13
2018-06-15T09:44:58.275Z,100291.40
2018-06-15T09:47:26.445Z,100289.26
2018-06-15T09:49:54.763Z,100286.56
2018-06-15T09:52:23.012Z,100285.66
2018-06-15T09:54:51.148Z,100282.39
2018-06-15T09:57:19.259Z,100280.05
2018-06-15T09:59:47.535Z,100285.61
2018-06-15T10:02:15.695Z,100282.05
2018-06-15T10:04:43.863Z,100274.45
2018-06-15T10:07:12.056Z,100279.48
2018-06-15T10:09:40.247Z,100274.52
2018-06-15T10:12:08.412Z,100275.89
2018-06-15T10:14:36.647Z,100281.30
2018-06-15T10:17:05.097Z,100278.53
2018-06-15T10:19:34.390Z,100282.03
2018-06-15T10:22:04.343Z,100282.39
2018-06-15T10:24:32.453Z,100274.66
2018-06-15T10:27:00.607Z,100281.80
2018-06-15T10:29:28.755Z,100279.31
2018-06-15T10:31:57.044Z,100278.81
2018-06-15T10:34:25.234Z,100274.46
2018-06-15T10:36:54.495Z,100278.42
2018-06-15T10:39:23.506Z,100283.05
2018-06-15T10:41:51.606Z,100284.24
2018-06-15T10:44:19.699Z,100278.82
2018-06-15T10:46:47.833Z,100274.91
2018-06-15T10:49:16.086Z,100280.10
2018-06-15T10:51:44.242Z,100274.87
2018-06-15T10:54:12.311Z,100281.95
2018-06-15T10:56:41.603Z,100273.30
2018-06-15T10:59:09.775Z,100275.01
2018-06-15T11:01:38.448Z,100279.38
2018-06-15T11:04:06.532Z,100275.95
2018-06-15T11:06:34.617Z,100274.16
2018-06-15T11:09:02.839Z,100271.11
2018-06-15T11:11:31.065Z,100272.97
2018-06-15T11:13:59.883Z,100276.91
2018-06-15T11:16:28.007Z,100271.55
2018-06-15T11:18:56.244Z,100270.25
2018-06-15T11:21:24.607Z,100269.91
2018-06-15T11:23:52.656Z,100267.80
2018-06-15T11:26:20.718Z,100272.92
2018-06-15T11:28:48.830Z,100269.05
2018-06-15T11:31:17.136Z,100269.05
2018-06-15T11:33:45.399Z,100266.42
2018-06-15T11:36:13.498Z,100265.16
2018-06-15T11:38:42.617Z,100270.29
2018-06-15T11:41:11.037Z,100269.94
2018-06-15T11:43:39.055Z,100265.62
2018-06-15T11:46:08.215Z,100265.59
2018-06-15T11:48:36.678Z,100264.34
2018-06-15T11:51:04.770Z,100261.75
2018-06-15T11:53:32.866Z,100259.12
2018-06-15T11:56:01.011Z,100261.75
2018-06-15T11:58:29.154Z,100259.12
2018-06-15T12:00:57.744Z,100261.28
2018-06-15T12:03:25.868Z,100257.84
2018-06-15T12:05:54.949Z,100256.11
2018-06-15T12:08:23.123Z,100258.30
2018-06-15T12:10:51.219Z,100256.55
2018-06-15T12:13:19.455Z,100254.84
2018-06-15T12:15:47.704Z,100261.78
2018-06-15T12:18:15.878Z,100258.31
2018-06-15T12:20:44.163Z,100261.33
2018-06-15T12:23:12.319Z,100259.16
2018-06-15T12:25:40.749Z,100261.77
2018-06-15T12:28:08.978Z,100255.70
2018-06-15T12:30:37.261Z,100260.04
2018-06-15T12:33:05.517Z,100260.05
2018-06-15T12:35:33.980Z,100262.19
2018-06-15T12:38:02.142Z,100261.75
2018-06-15T12:40:30.241Z,100259.59
2018-06-15T12:42:58.647Z,100259.17
2018-06-15T12:45:26.831Z,100260.44
2018-06-15T12:47:55.147Z,100263.48
2018-06-15T12:50:23.767Z,100262.62
2018-06-15T12:52:52.100Z,100261.33
2018-06-15T12:55:20.425Z,100263.04
2018-06-15T12:57:48.657Z,100260.87
2018-06-15T13:00:16.814Z,100259.59
2018-06-15T13:02:44.885Z,100262.97
2018-06-15T13:05:13.160Z,100256.06
2018-06-15T13:07:41.267Z,100255.42
2018-06-15T13:10:09.394Z,100256.02
2018-06-15T13:12:37.556Z,100255.56
2018-06-15T13:15:05.723Z,100257.78
2018-06-15T13:17:33.939Z,100249.47
2018-06-15T13:20:02.107Z,100248.89
2018-06-15T13:22:30.174Z,100242.73
2018-06-15T13:24:58.474Z,100246.79
2018-06-15T13:27:26.588Z,100250.02
2018-06-15T13:29:55.648Z,100245.19
2018-06-15T13:32:24.489Z,100248.64
2018-06-15T13:34:52.608Z,100247.33
2018-06-15T13:37:20.744Z,100246.05
2018-06-15T13:39:48.926Z,100241.86
2018-06-15T13:42:17.085Z,100242.67
2018-06-15T13:44:45.277Z,100250.00
2018-06-15T13:47:13.467Z,100249.66
2018-06-15T13:49:41.583Z,100245.75
2018-06-15T13:52:09.847Z,100249.56
2018-06-15T13:54:38.043Z,100240.06
2018-06-15T13:57:06.133Z,100236.78
2018-06-15T13:59:34.243Z,100234.22
2018-06-15T14:02:02.344Z,100233.58
2018-06-15T14:04:30.450Z,100240.97
2018-06-15T14:06:59.785Z,100236.69
2018-06-15T14:09:27.997Z,100234.56
2018-06-15T14:11:56.127Z,100242.36
2018-06-15T14:14:24.277Z,100238.35
2018-06-15T14:16:53.225Z,100237.75
2018-06-15T14:19:22.093Z,100233.52
2018-06-15T14:21:51.841Z,100235.75
2018-06-15T14:24:20.147Z,100228.44
2018-06-15T14:26:48.627Z,100235.30
2018-06-15T14:29:17.100Z,100234.45
2018-06-15T14:31:45.380Z,100229.32
2018-06-15T14:34:13.478Z,100220.09
2018-06-15T14:36:41.617Z,100218.85
2018-06-15T14:39:11.004Z,100215.70
2018-06-15T14:41:39.107Z,100214.73
2018-06-15T14:44:07.342Z,100213.94
2018-06-15T14:46:37.199Z,100210.92
2018-06-15T14:49:05.338Z,100215.27
2018-06-15T14:51:33.444Z,100209.91
2018-06-15T14:54:01.522Z,100214.81
2018-06-15T14:56:29.618Z,100222.23
2018-06-15T14:58:57.702Z,100217.38
2018-06-15T15:01:25.869Z,100218.40
2018-06-15T15:03:53.967Z,100215.92
2018-06-15T15:06:22.059Z,100213.44
2018-06-15T15:08:50.194Z,100214.17
2018-06-15T15:11:18.286Z,100212.78
2018-06-15T15:13:46.420Z,100210.17
2018-06-15T15:16:14.578Z,100204.93
2018-06-15T15:18:42.755Z,100209.79
2018-06-15T15:21:10.863Z,100206.58
2018-06-15T15:23:39.140Z,100207.51
2018-06-15T15:26:07.378Z,100207.45
2018-06-15T15:28:35.671Z,100208.19
2018-06-15T15:31:03.823Z,100209.48
2018-06-15T15:33:31.917Z,100209.38
2018-06-15T15:35:59.991Z,100213.36
2018-06-15T15:38:28.812Z,100216.45
2018-06-15T15:40:57.008Z,100208.95
2018-06-15T15:43:26.247Z,100214.80
2018-06-15T15:45:54.467Z,100210.97
2018-06-15T15:48:22.734Z,100206.37
2018-06-15T15:50:53.260Z,100206.30
2018-06-15T15:53:21.388Z,100205.78
2018-06-15T15:55:49.526Z,100208.11
2018-06-15T15:58:18.635Z,100207.13
2018-06-15T16:00:46.722Z,100207.59
2018-06-15T16:03:14.968Z,100210.95
2018-06-15T16:05:43.051Z,100206.14
2018-06-15T16:08:11.373Z,100210.46
2018-06-15T16:10:39.493Z,100207.38
2018-06-15T16:13:07.674Z,100211.89
2018-06-15T16:15:36.964Z,100206.16
2018-06-15T16:18:05.512Z,100208.91
2018-06-15T16:20:33.683Z,100204.41
2018-06-15T16:23:01.888Z,100212.47
2018-06-15T16:25:30.087Z,100210.67
2018-06-15T16:27:58.172Z,100214.73
2018-06-15T16:30:26.310Z,100216.09
2018-06-15T16:32:54.403Z,100208.88
2018-06-15T16:35:22.499Z,100212.80
2018-06-15T16:37:50.635Z,100215.33
2018-06-15T16:40:18.789Z,100205.97
2018-06-15T16:42:46.892Z,100212.60
2018-06-15T16:45:14.994Z,100217.59
2018-06-15T16:47:43.139Z,100217.88
2018-06-15T16:50:11.240Z,100219.16
2018-06-15T16:52:39.380Z,100222.86
2018-06-15T16:55:07.447Z,100223.90
2018-06-15T16:57:35.566Z,100220.40
2018-06-15T17:00:03.887Z,100218.47
2018-06-15T17:02:32.033Z,100219.14
2018-06-15T17:05:00.113Z,100221.64
2018-06-15T17:07:28.475Z,100212.48
2018-06-15T17:09:56.600Z,100217.16
2018-06-15T17:12:24.966Z,100217.28
2018-06-15T17:14:53.071Z,100207.28
2018-06-15T17:17:21.247Z,100212.53
2018-06-15T17:19:49.489Z,100212.55
2018-06-15T17:22:17.611Z,100214.35
2018-06-15T17:24:45.679Z,100212.59
2018-06-15T17:27:13.880Z,100209.51
2018-06-15T17:29:41.947Z,100207.85
2018-06-15T17:32:10.015Z,100209.10
2018-06-15T17:34:38.165Z,100217.36
2018-06-15T17:37:06.280Z,100211.75
2018-06-15T17:39:34.591Z,100213.09
2018-06-15T17:42:02.842Z,100219.05
2018-06-15T17:44:34.166Z,100208.23
2018-06-15T17:47:21.658Z,100210.05
2018-06-15T17:49:51.962Z,100207.45
2018-06-15T17:52:20.171Z,100210.90
2018-06-15T17:54:48.458Z,100212.61
2018-06-15T17:57:16.720Z,100214.36
2018-06-15T17:59:44.977Z,100210.54
2018-06-15T18:02:13.040Z,100215.78
2018-06-15T18:04:41.118Z,100217.17
2018-06-15T18:07:09.241Z,100213.19
2018-06-15T18:09:38.219Z,100210.09
2018-06-15T18:12:06.314Z,100209.29
2018-06-15T18:14:34.499Z,100206.77
2018-06-15T18:17:02.743Z,100203.31
2018-06-15T18:19:30.802Z,100199.38
2018-06-15T18:21:59.530Z,100203.27
2018-06-15T18:24:27.757Z,100200.64
2018-06-15T18:26:56.850Z,100204.53
2018-06-15T18:29:25.184Z,100203.27
2018-06-15T18:31:53.278Z,100202.45
2018-06-15T18:34:21.386Z,100199.86
2018-06-15T18:36:49.802Z,100206.79
2018-06-15T18:39:17.946Z,100198.56
2018-06-15T18:41:46.155Z,100197.73
2018-06-15T18:44:14.560Z,100206.35
2018-06-15T18:46:42.733Z,100206.31
2018-06-15T18:49:11.011Z,100198.53
2018-06-15T18:51:39.111Z,100206.32
2018-06-15T18:54:07.476Z,100205.47
2018-06-15T18:56:35.582Z,100211.13
2018-06-15T18:59:03.766Z,100214.14
2018-06-15T19:01:31.929Z,100207.20
2018-06-15T19:04:00.099Z,100218.92
2018-06-15T19:06:28.186Z,100218.47
2018-06-15T19:08:57.047Z,100213.72
2018-06-15T19:11:25.450Z,100212.83
2018-06-15T19:13:53.610Z,100210.68
2018-06-15T19:16:21.870Z,100211.98
2018-06-15T19:18:50.004Z,100208.08
2018-06-15T19:21:18.081Z,100207.27
2018-06-15T19:23:46.187Z,100209.84
2018-06-15T19:26:14.466Z,100215.94
2018-06-15T19:28:42.732Z,100216.79
2018-06-15T19:31:11.094Z,100215.95
2018-06-15T19:33:39.210Z,100219.38
2018-06-15T19:36:07.568Z,100216.81
2018-06-15T19:38:35.926Z,100216.38
2018-06-15T19:41:04.136Z,100221.13
2018-06-15T19:43:32.269Z,100225.89
2018-06-15T19:46:00.370Z,100226.73
2018-06-15T19:48:28.481Z,100228.47
2018-06-15T19:50:57.254Z,100233.24
2018-06-15T19:53:25.515Z,100228.50
2018-06-15T19:55:54.113Z,100220.72
2018-06-15T19:58:22.256Z,100226.31
2018-06-15T20:00:50.391Z,100221.98
2018-06-15T20:05:45.697Z,100220.28
2018-06-15T20:08:13.975Z,100217.25
2018-06-15T20:10:42.117Z,100220.70
2018-06-15T20:13:10.215Z,100221.16
2018-06-15T20:15:38.323Z,100224.14
2018-06-15T20:18:06.471Z,100221.53
2018-06-15T20:20:34.606Z,100222.88
2018-06-15T20:23:02.692Z,100218.06
2018-06-15T20:25:30.990Z,100221.52
2018-06-15T20:27:59.070Z,100215.45
2018-06-15T20:30:27.935Z,100223.64
2018-06-15T20:32:58.202Z,100221.05
2018-06-15T20:35:26.423Z,100221.47
2018-06-15T20:37:55.212Z,100213.72
2018-06-15T20:40:23.335Z,100211.13
2018-06-15T20:42:51.399Z,100212.88
2018-06-15T20:45:19.465Z,100212.42
2018-06-15T20:47:47.664Z,100224.92
2018-06-15T20:50:15.793Z,100219.31
2018-06-15T20:52:43.855Z,100220.59
2018-06-15T20:55:11.958Z,100219.28
2018-06-15T20:57:40.264Z,100217.09
2018-06-15T21:00:08.365Z,100218.02
2018-06-15T21:02:36.445Z,100216.27
2018-06-15T21:05:04.602Z,100212.33
2018-06-15T21:07:32.715Z,100212.80
2018-06-15T21:10:00.842Z,100206.71
2018-06-15T21:12:28.926Z,100210.16
2018-06-15T21:14:57.916Z,100212.31
2018-06-15T21:17:26.100Z,100208.34
2018-06-15T21:19:54.313Z,100207.91
2018-06-15T21:22:22.714Z,100208.01
2018-06-15T21:24:50.816Z,100209.29
2018-06-15T21:27:18.890Z,100203.20
2018-06-15T21:29:47.003Z,100204.53
2018-06-15T21:32:15.646Z,100202.39
2018-06-15T21:34:43.829Z,100205.33
2018-06-15T21:37:12.119Z,100200.59
2018-06-15T21:39:40.208Z,100208.16
2018-06-15T21:42:08.315Z,100203.45
2018-06-15T21:44:36.496Z,100206.09
2018-06-15T21:47:04.892Z,100200.44
2018-06-15T21:49:32.976Z,100196.56
2018-06-15T21:52:01.183Z,100199.56
2018-06-15T21:54:29.300Z,100194.45
2018-06-15T21:56:58.141Z,100200.00
2018-06-15T21:59:26.338Z,100201.18
2018-06-15T22:01:54.671Z,100197.30
2018-06-15T22:04:22.761Z,100202.98
2018-06-15T22:06:50.830Z,100195.63
2018-06-15T22:09:18.901Z,100199.53
2018-06-15T22:11:46.983Z,100198.19
2018-06-15T22:14:17.479Z,100198.22
2018-06-15T22:16:50.505Z,100194.30
2018-06-15T22:19:20.850Z,100199.91
2018-06-15T22:21:49.270Z,100198.89
2018-06-15T22:24:17.370Z,100196.77
2018-06-15T22:26:45.807Z,100207.63
2018-06-15T22:29:13.939Z,100199.85
2018-06-15T22:31:42.004Z,100196.35
2018-06-15T22:34:10.271Z,100200.08
2018-06-15T22:36:38.484Z,100196.66
2018-06-15T22:39:14.619Z,100201.49
2018-06-15T22:41:50.006Z,100205.55
2018-06-15T22:44:19.122Z,100201.55
2018-06-15T22:46:47.230Z,100202.18
2018-06-15T22:49:15.358Z,100206.06
2018-06-15T22:51:43.835Z,100208.30
2018-06-15T22:54:11.952Z,100206.89
2018-06-15T22:56:40.151Z,100209.94
2018-06-15T22:59:08.322Z,100210.80
2018-06-15T23:01:36.551Z,100210.76
2018-06-15T23:04:04.719Z,100208.61
2018-06-15T23:06:32.923Z,100205.59
2018-06-15T23:09:01.931Z,100208.64
2018-06-15T23:11:30.031Z,100201.74
2018-06-15T23:13:59.552Z,100208.05
2018-06-15T23:16:28.695Z,100206.38
2018-06-15T23:18:56.986Z,100207.63
2018-06-15T23:21:25.137Z,100201.53
2018-06-15T23:23:53.931Z,100201.09
2018-06-15T23:26:22.355Z,100193.84
2018-06-15T23:28:50.679Z,100194.62
2018-06-15T23:31:19.948Z,100197.38
2018-06-15T23:33:48.259Z,100192.14
2018-06-15T23:36:16.616Z,100198.27
2018-06-15T23:38:44.786Z,100199.66
2018-06-15T23:41:12.905Z,100201.01
2018-06-15T23:43:41.044Z,100202.47
2018-06-15T23:46:09.181Z,100199.84
2018-06-15T23:48:37.380Z,100196.52
2018-06-15T23:51:06.429Z,100202.71
2018-06-15T23:53:35.510Z,100206.61
2018-06-15T23:56:03.622Z,100193.92
2018-06-15T23:58:31.782Z,100195.16
